Hillsboro, New York
Current Conditions -  °F | °C
As of 5:53 AM on Friday 28 Nov 2014 (Local Time) from KRME Reporting Station
Overcast Overcast  
Wind Chill: 18°   Ceiling: 3700
Heat Index: 24°   Visibility: 10mi
Dew Point: 23°   Wind: 5mph
Humidity: 96%   Direction: 310°NW
Pressure: 30.14"   Gusts: NA
Location:  43.3736°N, 75.7544°W
Report Text: KRME 281053Z AUTO 31004KT 10SM OVC037 M04/M05 A3014 RMK AO2 SLP211 T10441050
Loading
Personal Weather Stations






























Interactive Weather Map New forecast layout! Learn more

10-Day Weather Forecast

Advertisements
Track Severe Weather on mobile